createdAt,value
2019-01-09T00:01:38.527Z,5.30
2019-01-09T00:04:06.788Z,5.20
2019-01-09T00:06:35.059Z,5.20
2019-01-09T00:09:05.024Z,5.20
2019-01-09T00:11:34.299Z,5.10
2019-01-09T00:14:02.529Z,5.00
2019-01-09T00:16:31.068Z,5.00
2019-01-09T00:18:59.402Z,4.90
2019-01-09T00:21:27.669Z,4.80
2019-01-09T00:23:55.937Z,4.90
2019-01-09T00:26:24.207Z,4.90
2019-01-09T00:28:52.464Z,4.90
2019-01-09T00:31:20.754Z,4.90
2019-01-09T00:33:49.003Z,4.90
2019-01-09T00:36:17.274Z,4.90
2019-01-09T00:38:45.536Z,4.90
2019-01-09T00:41:13.892Z,4.90
2019-01-09T00:43:42.163Z,5.00
2019-01-09T00:46:10.683Z,5.00
2019-01-09T00:48:39.186Z,5.00
2019-01-09T00:51:07.704Z,5.00
2019-01-09T00:53:35.945Z,5.10
2019-01-09T00:56:04.174Z,5.10
2019-01-09T00:58:32.459Z,5.10
2019-01-09T01:01:00.778Z,5.10
2019-01-09T01:03:38.119Z,5.10
2019-01-09T01:06:30.598Z,5.10
2019-01-09T01:09:27.531Z,5.20
2019-01-09T01:12:19.890Z,5.10
2019-01-09T01:15:09.495Z,5.10
2019-01-09T01:17:58.979Z,5.00
2019-01-09T01:20:30.473Z,5.00
2019-01-09T01:23:04.815Z,4.90
2019-01-09T01:25:45.266Z,4.90
2019-01-09T01:28:22.746Z,4.90
2019-01-09T01:31:13.437Z,4.80
2019-01-09T01:33:53.674Z,4.90
2019-01-09T01:36:31.131Z,4.90
2019-01-09T01:39:25.488Z,5.00
2019-01-09T01:42:11.619Z,4.90
2019-01-09T01:44:48.955Z,4.90
2019-01-09T01:47:31.723Z,5.00
2019-01-09T01:50:14.816Z,5.00
2019-01-09T01:52:51.912Z,5.00
2019-01-09T01:55:35.363Z,5.00
2019-01-09T01:58:23.504Z,5.00
2019-01-09T02:01:03.978Z,5.00
2019-01-09T02:03:35.476Z,5.00
2019-01-09T02:06:13.206Z,5.10
2019-01-09T02:08:44.721Z,5.10
2019-01-09T02:11:28.224Z,5.10
2019-01-09T02:14:05.856Z,5.10
2019-01-09T02:16:40.067Z,5.10
2019-01-09T02:19:14.417Z,5.00
2019-01-09T02:21:51.623Z,5.00
2019-01-09T02:24:39.521Z,5.00
2019-01-09T02:27:33.053Z,4.90
2019-01-09T02:30:10.353Z,4.90
2019-01-09T02:32:38.616Z,4.90
2019-01-09T02:35:06.951Z,4.80
2019-01-09T02:37:35.194Z,4.80
2019-01-09T02:40:03.430Z,4.80
2019-01-09T02:42:31.696Z,4.80
2019-01-09T02:44:59.946Z,4.80
2019-01-09T02:47:28.234Z,4.80
2019-01-09T02:49:56.537Z,4.80
2019-01-09T02:52:24.822Z,4.90
2019-01-09T02:54:53.137Z,4.90
2019-01-09T02:57:21.401Z,5.00
2019-01-09T02:59:49.666Z,5.00
2019-01-09T03:02:17.988Z,5.00
2019-01-09T03:04:46.243Z,5.00
2019-01-09T03:07:14.511Z,5.00
2019-01-09T03:09:42.753Z,5.00
2019-01-09T03:12:11.030Z,5.00
2019-01-09T03:14:39.610Z,5.00
2019-01-09T03:17:07.886Z,5.00
2019-01-09T03:19:36.240Z,5.10
2019-01-09T03:22:04.499Z,5.00
2019-01-09T03:24:32.757Z,5.00
2019-01-09T03:27:01.011Z,5.00
2019-01-09T03:29:29.267Z,5.00
2019-01-09T03:31:57.525Z,5.10
2019-01-09T03:34:25.782Z,5.00
2019-01-09T03:36:54.058Z,5.00
2019-01-09T03:39:22.388Z,5.10
2019-01-09T03:41:50.706Z,5.00
2019-01-09T03:44:18.996Z,5.00
2019-01-09T03:46:47.299Z,5.00
2019-01-09T03:49:15.561Z,5.00
2019-01-09T03:51:43.823Z,4.90
2019-01-09T03:54:12.331Z,4.90
2019-01-09T03:56:40.579Z,4.80
2019-01-09T03:59:09.010Z,4.80
2019-01-09T04:01:37.274Z,4.80
2019-01-09T04:04:05.541Z,4.80
2019-01-09T04:06:41.625Z,4.80
2019-01-09T04:09:04.167Z,4.80
2019-01-09T04:11:32.699Z,4.70
2019-01-09T04:14:00.962Z,4.50
2019-01-09T04:16:29.203Z,4.30
2019-01-09T04:18:57.461Z,4.10
2019-01-09T04:21:25.702Z,4.10
2019-01-09T04:23:53.973Z,4.10
2019-01-09T04:26:22.481Z,4.10
2019-01-09T04:28:50.752Z,4.10
2019-01-09T04:31:18.994Z,4.20
2019-01-09T04:33:47.265Z,4.20
2019-01-09T04:36:15.515Z,4.20
2019-01-09T04:38:43.791Z,4.20
2019-01-09T04:41:12.029Z,4.30
2019-01-09T04:43:40.295Z,4.30
2019-01-09T04:46:08.617Z,4.30
2019-01-09T04:48:37.149Z,4.40
2019-01-09T04:51:05.474Z,4.40
2019-01-09T04:53:33.711Z,4.40
2019-01-09T04:56:01.996Z,4.40
2019-01-09T04:58:30.321Z,4.40
2019-01-09T05:00:58.598Z,4.30
2019-01-09T05:03:27.114Z,4.30
2019-01-09T05:05:55.384Z,4.30
2019-01-09T05:08:23.626Z,4.30
2019-01-09T05:10:51.904Z,4.30
2019-01-09T05:13:20.398Z,4.30
2019-01-09T05:15:48.696Z,4.30
2019-01-09T05:18:16.988Z,4.20
2019-01-09T05:20:45.268Z,4.20
2019-01-09T05:23:13.501Z,4.10
2019-01-09T05:25:41.796Z,4.20
2019-01-09T05:28:10.109Z,4.20
2019-01-09T05:30:38.399Z,4.10
2019-01-09T05:33:06.657Z,4.10
2019-01-09T05:35:34.926Z,4.10
2019-01-09T05:38:03.438Z,4.10
2019-01-09T05:40:31.698Z,4.10
2019-01-09T05:43:00.181Z,4.10
2019-01-09T05:45:28.481Z,4.10
2019-01-09T05:47:56.741Z,4.10
2019-01-09T05:50:25.095Z,4.20
2019-01-09T05:52:53.669Z,4.20
2019-01-09T05:55:21.948Z,4.20
2019-01-09T05:57:50.189Z,4.20
2019-01-09T06:00:18.441Z,4.20
2019-01-09T06:02:46.725Z,4.20
2019-01-09T06:05:14.977Z,4.30
2019-01-09T06:07:44.559Z,4.20
2019-01-09T06:10:13.116Z,4.20
2019-01-09T06:12:41.389Z,4.10
2019-01-09T06:15:09.640Z,4.20
2019-01-09T06:17:37.912Z,4.20
2019-01-09T06:20:07.114Z,4.20
2019-01-09T06:22:35.403Z,4.20
2019-01-09T06:25:03.947Z,4.20
2019-01-09T06:27:32.221Z,4.20
2019-01-09T06:30:00.581Z,4.20
2019-01-09T06:32:28.890Z,4.20
2019-01-09T06:34:57.158Z,4.10
2019-01-09T06:37:27.562Z,4.20
2019-01-09T06:39:55.525Z,4.10
2019-01-09T06:42:23.794Z,4.20
2019-01-09T06:44:52.039Z,4.20
2019-01-09T06:47:20.302Z,4.20
2019-01-09T06:49:48.567Z,4.20
2019-01-09T06:52:16.885Z,4.20
2019-01-09T06:54:45.213Z,4.20
2019-01-09T06:57:13.472Z,4.20
2019-01-09T06:59:41.725Z,4.20
2019-01-09T07:02:09.993Z,4.20
2019-01-09T07:04:39.049Z,4.20
2019-01-09T07:07:07.308Z,4.20
2019-01-09T07:09:35.579Z,4.20
2019-01-09T07:12:03.862Z,4.20
2019-01-09T07:14:32.459Z,4.20
2019-01-09T07:17:00.761Z,4.10
2019-01-09T07:19:29.288Z,4.10
2019-01-09T07:21:57.605Z,4.10
2019-01-09T07:24:25.859Z,4.10
2019-01-09T07:26:54.112Z,4.10
2019-01-09T07:29:22.374Z,4.00
2019-01-09T07:31:50.627Z,4.10
2019-01-09T07:34:18.901Z,4.00
2019-01-09T07:36:47.422Z,4.00
2019-01-09T07:39:15.941Z,4.00
2019-01-09T07:41:44.183Z,4.00
2019-01-09T07:44:12.716Z,4.00
2019-01-09T07:46:40.964Z,4.00
2019-01-09T07:49:09.219Z,4.00
2019-01-09T07:51:37.477Z,4.00
2019-01-09T07:54:05.740Z,4.00
2019-01-09T07:56:34.016Z,4.00
2019-01-09T07:59:02.272Z,4.00
2019-01-09T08:01:30.520Z,4.00
2019-01-09T08:03:58.790Z,4.00
2019-01-09T08:06:27.015Z,4.00
2019-01-09T08:08:55.292Z,4.00
2019-01-09T08:11:23.670Z,4.00
2019-01-09T08:13:52.026Z,4.00
2019-01-09T08:16:20.559Z,4.10
2019-01-09T08:18:48.861Z,4.00
2019-01-09T08:21:17.178Z,4.10
2019-01-09T08:23:45.467Z,4.10
2019-01-09T08:26:13.790Z,4.10
2019-01-09T08:28:42.033Z,4.10
2019-01-09T08:31:10.303Z,4.10
2019-01-09T08:33:38.620Z,4.20
2019-01-09T08:36:07.191Z,4.20
2019-01-09T08:38:35.718Z,4.20
2019-01-09T08:41:04.066Z,4.20
2019-01-09T08:43:32.384Z,4.20
2019-01-09T08:46:00.712Z,4.20
2019-01-09T08:48:28.970Z,4.20
2019-01-09T08:50:57.319Z,4.30
2019-01-09T08:53:25.840Z,4.30
2019-01-09T08:55:54.116Z,4.40
2019-01-09T08:58:22.360Z,4.50
2019-01-09T09:00:50.640Z,4.50
2019-01-09T09:03:18.960Z,4.50
2019-01-09T09:05:47.223Z,4.60
2019-01-09T09:08:15.516Z,4.60
2019-01-09T09:10:43.791Z,4.60
2019-01-09T09:13:15.560Z,4.60
2019-01-09T09:15:43.825Z,4.70
2019-01-09T09:18:12.089Z,4.70
2019-01-09T09:20:40.372Z,4.70
2019-01-09T09:23:08.644Z,4.70
2019-01-09T09:25:36.923Z,4.80
2019-01-09T09:28:05.463Z,4.80
2019-01-09T09:30:34.079Z,4.70
2019-01-09T09:33:02.667Z,4.70
2019-01-09T09:35:31.071Z,4.80
2019-01-09T09:37:59.590Z,4.80
2019-01-09T09:40:28.116Z,4.70
2019-01-09T09:42:56.443Z,4.80
2019-01-09T09:45:24.728Z,4.80
2019-01-09T09:47:52.977Z,4.80
2019-01-09T09:50:21.243Z,4.80
2019-01-09T09:52:49.523Z,4.80
2019-01-09T09:55:17.771Z,4.80
2019-01-09T09:57:46.261Z,4.90
2019-01-09T10:00:19.872Z,4.80
2019-01-09T10:02:48.155Z,4.80
2019-01-09T10:05:16.407Z,4.90
2019-01-09T10:07:44.667Z,4.90
2019-01-09T10:10:14.635Z,4.90
2019-01-09T10:12:42.894Z,5.00
2019-01-09T10:15:14.331Z,4.90
2019-01-09T10:17:42.672Z,4.90
2019-01-09T10:20:13.665Z,4.80
2019-01-09T10:22:41.972Z,4.90
2019-01-09T10:25:10.327Z,4.90
2019-01-09T10:27:38.593Z,4.90
2019-01-09T10:30:13.034Z,5.00
2019-01-09T10:32:41.345Z,5.00
2019-01-09T10:35:09.608Z,5.00
2019-01-09T10:37:37.948Z,5.00
2019-01-09T10:40:09.756Z,4.90
2019-01-09T10:42:38.103Z,5.00
2019-01-09T10:45:09.367Z,5.10
2019-01-09T10:47:37.987Z,5.10
2019-01-09T10:50:08.872Z,4.90
2019-01-09T10:52:37.820Z,4.80
2019-01-09T10:55:07.086Z,4.50
2019-01-09T10:57:35.634Z,4.50
2019-01-09T11:00:07.205Z,4.40
2019-01-09T11:02:35.475Z,4.40
2019-01-09T11:05:03.989Z,4.40
2019-01-09T11:07:32.540Z,4.50
2019-01-09T11:10:00.869Z,4.60
2019-01-09T11:12:29.139Z,4.60
2019-01-09T11:14:57.399Z,4.60
2019-01-09T11:17:25.979Z,4.70
2019-01-09T11:19:54.263Z,4.70
2019-01-09T11:22:22.564Z,4.80
2019-01-09T11:24:50.881Z,4.80
2019-01-09T11:27:19.500Z,4.90
2019-01-09T11:29:47.759Z,4.90
2019-01-09T11:32:16.033Z,4.80
2019-01-09T11:34:44.288Z,4.80
2019-01-09T11:37:12.819Z,4.80
2019-01-09T11:39:41.078Z,4.80
2019-01-09T11:42:11.473Z,4.70
2019-01-09T11:44:39.744Z,4.70
2019-01-09T11:47:08.376Z,4.70
2019-01-09T11:49:36.649Z,4.70
2019-01-09T11:52:04.971Z,4.70
2019-01-09T11:54:33.276Z,4.70
2019-01-09T11:57:01.530Z,4.70
2019-01-09T11:59:29.921Z,4.70
2019-01-09T12:01:58.245Z,4.70
2019-01-09T12:04:27.914Z,4.80
2019-01-09T12:06:56.182Z,4.80
2019-01-09T12:09:24.813Z,4.80
2019-01-09T12:11:53.054Z,4.80
2019-01-09T12:14:21.345Z,4.80
2019-01-09T12:16:49.605Z,4.80
2019-01-09T12:19:17.896Z,4.80
2019-01-09T12:21:46.149Z,4.80
2019-01-09T12:24:14.686Z,4.70
2019-01-09T12:26:42.963Z,4.80
2019-01-09T12:29:11.236Z,4.80
2019-01-09T12:31:39.491Z,4.90
2019-01-09T12:34:07.750Z,5.00
2019-01-09T12:36:36.028Z,5.00
2019-01-09T12:39:13.216Z,5.10
2019-01-09T12:41:36.254Z,5.10
2019-01-09T12:44:04.858Z,5.20
2019-01-09T12:46:33.113Z,5.20
2019-01-09T12:49:01.378Z,5.20
2019-01-09T12:51:29.639Z,5.10
2019-01-09T12:53:57.914Z,5.00
2019-01-09T12:56:26.184Z,5.00
2019-01-09T12:58:54.476Z,5.10
2019-01-09T13:01:22.724Z,5.00
2019-01-09T13:03:51.257Z,5.00
2019-01-09T13:06:19.499Z,5.00
2019-01-09T13:08:47.854Z,5.00
2019-01-09T13:11:16.124Z,5.00
2019-01-09T13:13:44.467Z,5.10
2019-01-09T13:16:12.707Z,5.10
2019-01-09T13:18:40.978Z,5.00
2019-01-09T13:21:09.229Z,5.00
2019-01-09T13:23:37.485Z,5.10
2019-01-09T13:26:05.840Z,5.10
2019-01-09T13:28:34.076Z,5.10
2019-01-09T13:31:02.594Z,5.20
2019-01-09T13:33:31.118Z,5.10
2019-01-09T13:35:59.453Z,5.00
2019-01-09T13:38:27.968Z,5.00
2019-01-09T13:40:56.517Z,5.00
2019-01-09T13:43:24.755Z,4.90
2019-01-09T13:45:53.079Z,5.00
2019-01-09T13:48:21.397Z,5.00
2019-01-09T13:50:49.667Z,5.00
2019-01-09T13:53:17.916Z,4.90
2019-01-09T13:55:46.191Z,5.00
2019-01-09T13:58:14.515Z,5.10
2019-01-09T14:00:42.772Z,5.00
2019-01-09T14:03:11.024Z,5.00
2019-01-09T14:05:39.295Z,4.90
2019-01-09T14:08:07.552Z,4.90
2019-01-09T14:10:35.894Z,4.90
2019-01-09T14:13:04.144Z,5.00
2019-01-09T14:15:32.406Z,5.00
2019-01-09T14:18:00.662Z,5.00
2019-01-09T14:20:28.917Z,5.00
2019-01-09T14:22:57.415Z,4.90
2019-01-09T14:25:25.699Z,5.00
2019-01-09T14:27:53.947Z,5.00
2019-01-09T14:30:24.362Z,5.00
2019-01-09T14:32:52.624Z,5.00
2019-01-09T14:35:20.866Z,5.00
2019-01-09T14:37:49.394Z,5.00
2019-01-09T14:40:19.029Z,5.00
2019-01-09T14:42:47.307Z,5.00
2019-01-09T14:45:16.498Z,5.00
2019-01-09T14:47:44.768Z,5.00
2019-01-09T14:50:21.376Z,4.90
2019-01-09T14:52:49.909Z,4.90
2019-01-09T14:55:18.407Z,4.90
2019-01-09T14:57:46.664Z,4.90
2019-01-09T15:00:22.640Z,4.90
2019-01-09T15:02:52.443Z,4.90
2019-01-09T15:05:20.826Z,5.00
2019-01-09T15:07:49.135Z,4.90
2019-01-09T15:10:19.523Z,4.80
2019-01-09T15:12:48.077Z,4.80
2019-01-09T15:15:17.284Z,4.80
2019-01-09T15:17:45.558Z,4.80
2019-01-09T15:20:20.670Z,4.80
2019-01-09T15:22:48.993Z,4.80
2019-01-09T15:25:17.812Z,4.80
2019-01-09T15:27:46.143Z,4.70
2019-01-09T15:30:19.585Z,4.80
2019-01-09T15:32:47.860Z,4.80
2019-01-09T15:35:16.092Z,4.80
2019-01-09T15:37:44.383Z,4.80
2019-01-09T15:40:17.980Z,4.80
2019-01-09T15:42:46.271Z,4.80
2019-01-09T15:45:14.554Z,4.70
2019-01-09T15:47:42.876Z,4.70
2019-01-09T15:50:14.370Z,4.70
2019-01-09T15:52:42.655Z,4.70
2019-01-09T15:55:13.658Z,4.70
2019-01-09T15:57:42.238Z,4.60
2019-01-09T16:00:16.231Z,4.50
2019-01-09T16:02:44.470Z,4.50
2019-01-09T16:05:12.764Z,4.50
2019-01-09T16:07:41.255Z,4.50
2019-01-09T16:10:14.752Z,4.60
2019-01-09T16:12:42.607Z,4.60
2019-01-09T16:15:13.337Z,4.70
2019-01-09T16:17:41.669Z,4.70
2019-01-09T16:20:17.002Z,4.60
2019-01-09T16:22:42.641Z,4.60
2019-01-09T16:25:13.005Z,4.60
2019-01-09T16:27:41.259Z,4.60
2019-01-09T16:30:12.790Z,4.60
2019-01-09T16:32:41.050Z,4.60
2019-01-09T16:35:09.447Z,4.50
2019-01-09T16:37:37.699Z,4.60
2019-01-09T16:40:09.467Z,4.50
2019-01-09T16:42:37.980Z,4.30
2019-01-09T16:45:09.515Z,4.30
2019-01-09T16:47:37.789Z,4.20
2019-01-09T16:50:18.148Z,4.20
2019-01-09T16:52:46.429Z,4.00
2019-01-09T16:55:14.751Z,4.10
2019-01-09T16:57:43.558Z,4.00
2019-01-09T17:00:17.600Z,4.10
2019-01-09T17:02:45.943Z,4.00
2019-01-09T17:05:14.348Z,4.10
2019-01-09T17:07:42.688Z,4.20
2019-01-09T17:10:15.897Z,4.10
2019-01-09T17:12:44.156Z,4.20
2019-01-09T17:15:15.728Z,4.20
2019-01-09T17:17:44.145Z,4.20
2019-01-09T17:20:21.200Z,4.20
2019-01-09T17:22:49.521Z,4.20
2019-01-09T17:25:17.890Z,4.20
2019-01-09T17:27:46.219Z,4.30
2019-01-09T17:30:28.295Z,4.20
2019-01-09T17:32:56.674Z,4.20
2019-01-09T17:35:25.236Z,4.20
2019-01-09T17:37:53.779Z,4.20
2019-01-09T17:40:23.320Z,4.20
2019-01-09T17:42:51.936Z,4.10
2019-01-09T17:45:20.202Z,4.00
2019-01-09T17:47:48.805Z,3.90
2019-01-09T17:50:25.648Z,3.90
2019-01-09T17:52:54.296Z,3.80
2019-01-09T17:55:22.624Z,3.90
2019-01-09T17:57:50.992Z,3.90
2019-01-09T18:00:27.528Z,4.00
2019-01-09T18:02:55.894Z,4.00
2019-01-09T18:05:24.211Z,4.00
2019-01-09T18:07:55.460Z,4.00
2019-01-09T18:10:25.444Z,4.00
2019-01-09T18:12:54.135Z,3.90
2019-01-09T18:15:23.588Z,4.00
2019-01-09T18:17:51.933Z,4.00
2019-01-09T18:20:21.715Z,4.00
2019-01-09T18:22:50.142Z,4.00
2019-01-09T18:25:26.743Z,4.00
2019-01-09T18:27:55.121Z,4.00
2019-01-09T18:30:27.259Z,4.00
2019-01-09T18:32:59.110Z,4.00
2019-01-09T18:35:33.276Z,4.00
2019-01-09T18:38:15.451Z,4.00
2019-01-09T18:40:43.775Z,3.90
2019-01-09T18:43:24.352Z,3.90
2019-01-09T18:46:01.452Z,3.90
2019-01-09T18:48:33.011Z,3.80
2019-01-09T18:51:19.574Z,3.80
2019-01-09T18:53:47.883Z,3.80
2019-01-09T18:56:16.463Z,3.70
2019-01-09T18:58:44.841Z,3.80
2019-01-09T19:01:13.165Z,3.80
2019-01-09T19:03:41.741Z,3.70
2019-01-09T19:06:10.135Z,3.80
2019-01-09T19:08:38.396Z,3.80
2019-01-09T19:11:07.775Z,3.80
2019-01-09T19:13:36.431Z,3.70
2019-01-09T19:16:05.163Z,3.80
2019-01-09T19:18:33.524Z,3.80
2019-01-09T19:21:02.154Z,3.80
2019-01-09T19:23:31.160Z,3.80
2019-01-09T19:25:59.456Z,3.80
2019-01-09T19:28:27.996Z,3.80
2019-01-09T19:30:56.572Z,3.80
2019-01-09T19:33:24.931Z,3.90
2019-01-09T19:35:53.259Z,3.80
2019-01-09T19:38:21.555Z,3.80
2019-01-09T19:40:50.118Z,3.80
2019-01-09T19:43:18.381Z,3.70
2019-01-09T19:45:46.656Z,3.80
2019-01-09T19:48:14.926Z,3.80
2019-01-09T19:50:43.269Z,3.70
2019-01-09T19:53:11.802Z,3.70
2019-01-09T19:55:40.360Z,3.80
2019-01-09T19:58:08.600Z,3.70
2019-01-09T20:00:36.895Z,3.80
2019-01-09T20:03:05.236Z,3.80
2019-01-09T20:05:33.746Z,3.70
2019-01-09T20:08:02.835Z,3.70
2019-01-09T20:10:31.134Z,3.70
2019-01-09T20:12:59.445Z,3.60
2019-01-09T20:15:27.745Z,3.60
2019-01-09T20:17:56.051Z,3.60
2019-01-09T20:20:24.412Z,3.50
2019-01-09T20:22:52.738Z,3.50
2019-01-09T20:25:21.072Z,3.50
2019-01-09T20:27:49.530Z,3.50
2019-01-09T20:30:23.654Z,3.40
2019-01-09T20:32:51.931Z,3.40
2019-01-09T20:35:20.293Z,3.30
2019-01-09T20:37:48.606Z,3.30
2019-01-09T20:40:16.926Z,3.30
2019-01-09T20:42:45.181Z,3.20
2019-01-09T20:45:15.636Z,3.20
2019-01-09T20:47:44.062Z,3.20
2019-01-09T20:50:15.769Z,3.20
2019-01-09T20:52:44.296Z,3.10
2019-01-09T20:55:12.777Z,3.20
2019-01-09T20:57:41.375Z,3.20
2019-01-09T21:00:22.068Z,3.20
2019-01-09T21:02:50.540Z,3.30
2019-01-09T21:05:21.899Z,3.30
2019-01-09T21:07:50.830Z,3.30
2019-01-09T21:10:19.572Z,3.30
2019-01-09T21:12:47.829Z,3.30
2019-01-09T21:15:17.936Z,3.30
2019-01-09T21:17:46.249Z,3.30
2019-01-09T21:20:19.314Z,3.30
2019-01-09T21:22:47.830Z,3.30
2019-01-09T21:25:16.772Z,3.40
2019-01-09T21:27:45.469Z,3.30
2019-01-09T21:30:17.019Z,3.30
2019-01-09T21:32:45.538Z,3.30
2019-01-09T21:35:14.822Z,3.30
2019-01-09T21:37:43.264Z,3.30
2019-01-09T21:40:14.780Z,3.30
2019-01-09T21:42:43.076Z,3.30
2019-01-09T21:45:11.864Z,3.30
2019-01-09T21:47:40.400Z,3.20
2019-01-09T21:50:19.658Z,3.30
2019-01-09T21:52:48.095Z,3.30
2019-01-09T21:55:16.583Z,3.30
2019-01-09T21:57:45.184Z,3.30
2019-01-09T22:00:26.298Z,3.30
2019-01-09T22:02:54.574Z,3.30
2019-01-09T22:05:23.280Z,3.30
2019-01-09T22:07:51.637Z,3.30
2019-01-09T22:10:23.448Z,3.30
2019-01-09T22:12:51.708Z,3.30
2019-01-09T22:15:20.049Z,3.40
2019-01-09T22:17:48.567Z,3.30
2019-01-09T22:20:17.679Z,3.40
2019-01-09T22:22:46.000Z,3.30
2019-01-09T22:25:14.282Z,3.40
2019-01-09T22:27:42.541Z,3.40
2019-01-09T22:30:19.934Z,3.50
2019-01-09T22:32:48.276Z,3.50
2019-01-09T22:35:16.636Z,3.40
2019-01-09T22:37:45.241Z,3.40
2019-01-09T22:40:16.036Z,3.40
2019-01-09T22:42:44.367Z,3.40
2019-01-09T22:45:13.497Z,3.40
2019-01-09T22:47:41.814Z,3.40
2019-01-09T22:50:12.889Z,3.40
2019-01-09T22:52:41.153Z,3.50
2019-01-09T22:55:10.340Z,3.50
2019-01-09T22:57:38.671Z,3.50
2019-01-09T23:00:10.297Z,3.60
2019-01-09T23:02:38.551Z,3.60
2019-01-09T23:05:06.883Z,3.60
2019-01-09T23:07:35.995Z,3.60
2019-01-09T23:10:08.112Z,3.60
2019-01-09T23:12:36.359Z,3.60
2019-01-09T23:15:05.674Z,3.60
2019-01-09T23:17:33.916Z,3.70
2019-01-09T23:22:48.660Z,3.70
2019-01-09T23:25:29.313Z,3.60
2019-01-09T23:28:09.863Z,3.60
2019-01-09T23:30:50.693Z,3.60
2019-01-09T23:33:31.787Z,3.60
2019-01-09T23:36:12.315Z,3.50
2019-01-09T23:38:52.956Z,3.60
2019-01-09T23:41:34.132Z,3.50
2019-01-09T23:44:15.197Z,3.60
2019-01-09T23:46:56.167Z,3.60
2019-01-09T23:49:37.149Z,3.60
2019-01-09T23:52:17.902Z,3.50
2019-01-09T23:54:58.763Z,3.50
2019-01-09T23:57:39.344Z,3.50
